createdAt,value
2019-06-01T00:02:09.975Z,18.27
2019-06-01T00:04:40.929Z,20.37
2019-06-01T00:07:10.433Z,17.40
2019-06-01T00:09:40.929Z,20.17
2019-06-01T00:12:10.545Z,17.97
2019-06-01T00:14:39.896Z,16.57
2019-06-01T00:17:09.472Z,18.27
2019-06-01T00:19:39.890Z,20.47
2019-06-01T00:22:09.500Z,27.50
2019-06-01T00:24:38.882Z,17.03
2019-06-01T00:27:08.091Z,21.07
2019-06-01T00:29:37.316Z,19.80
2019-06-01T00:32:06.917Z,22.57
2019-06-01T00:34:36.482Z,20.00
2019-06-01T00:37:05.749Z,22.90
2019-06-01T00:39:35.128Z,25.07
2019-06-01T00:42:04.512Z,21.40
2019-06-01T00:44:33.864Z,22.50
2019-06-01T00:47:03.089Z,21.27
2019-06-01T00:49:32.632Z,22.97
2019-06-01T00:52:01.965Z,23.73
2019-06-01T00:54:31.278Z,24.60
2019-06-01T00:57:00.505Z,21.57
2019-06-01T00:59:30.051Z,20.37
2019-06-01T01:01:59.327Z,23.17
2019-06-01T01:04:28.591Z,25.00
2019-06-01T01:06:57.799Z,29.37
2019-06-01T01:09:27.243Z,27.43
2019-06-01T01:11:56.765Z,34.17
2019-06-01T01:14:26.008Z,38.00
2019-06-01T01:16:55.743Z,51.50
2019-06-01T01:19:25.567Z,45.20
2019-06-01T01:21:56.317Z,55.40
2019-06-01T01:24:25.911Z,55.20
2019-06-01T01:26:56.856Z,48.77
2019-06-01T01:29:26.763Z,51.03
2019-06-01T01:31:57.335Z,53.57
2019-06-01T01:34:26.694Z,50.60
2019-06-01T01:36:58.120Z,51.33
2019-06-01T01:39:27.765Z,55.30
2019-06-01T01:41:56.984Z,53.37
2019-06-01T01:44:26.466Z,62.13
2019-06-01T01:46:56.988Z,60.23
2019-06-01T01:49:26.623Z,55.50
2019-06-01T01:51:57.738Z,56.80
2019-06-01T01:54:26.980Z,54.90
2019-06-01T01:56:56.682Z,58.57
2019-06-01T01:59:25.907Z,58.33
2019-06-01T02:01:56.548Z,53.60
2019-06-01T02:04:27.966Z,54.43
2019-06-01T02:06:58.440Z,52.90
2019-06-01T02:09:27.684Z,65.13
2019-06-01T02:11:57.661Z,58.07
2019-06-01T02:14:26.998Z,56.23
2019-06-01T02:16:58.399Z,58.83
2019-06-01T02:19:27.655Z,59.83
2019-06-01T02:21:58.318Z,62.47
2019-06-01T02:24:28.121Z,68.03
2019-06-01T02:26:57.404Z,57.63
2019-06-01T02:29:27.134Z,65.00
2019-06-01T02:31:56.679Z,67.57
2019-06-01T02:34:25.992Z,66.80
2019-06-01T02:36:56.509Z,66.57
2019-06-01T02:39:26.483Z,59.73
2019-06-01T02:41:56.810Z,74.00
2019-06-01T02:44:26.047Z,66.10
2019-06-01T02:46:56.968Z,67.87
2019-06-01T02:49:26.804Z,67.53
2019-06-01T02:51:57.177Z,69.50
2019-06-01T02:54:27.133Z,74.60
2019-06-01T02:56:56.356Z,74.70
2019-06-01T02:59:25.640Z,72.03
2019-06-01T03:01:58.225Z,82.23
2019-06-01T03:04:26.494Z,64.17
2019-06-01T03:06:57.234Z,69.13
2019-06-01T03:09:26.648Z,70.57
2019-06-01T03:12:00.406Z,73.60
2019-06-01T03:14:29.864Z,69.40
2019-06-01T03:17:01.948Z,69.80
2019-06-01T03:19:32.430Z,75.10
2019-06-01T03:22:05.237Z,74.92
2019-06-01T03:24:37.746Z,69.40
2019-06-01T03:27:08.243Z,71.30
2019-06-01T03:29:40.927Z,70.60
2019-06-01T03:32:29.157Z,73.30
2019-06-01T03:34:41.466Z,82.77
2019-06-01T03:37:10.853Z,95.27
2019-06-01T03:39:40.387Z,77.20
2019-06-01T03:42:11.612Z,78.20
2019-06-01T03:44:41.356Z,73.63
2019-06-01T03:47:11.867Z,69.13
2019-06-01T03:49:41.613Z,71.47
2019-06-01T03:52:10.921Z,80.27
2019-06-01T03:54:40.482Z,78.60
2019-06-01T03:57:09.779Z,76.23
2019-06-01T03:59:38.997Z,72.37
2019-06-01T04:02:09.839Z,74.23
2019-06-01T04:04:39.417Z,71.17
2019-06-01T04:07:08.642Z,69.97
2019-06-01T04:09:38.304Z,65.10
2019-06-01T04:12:07.795Z,66.97
2019-06-01T04:14:37.073Z,64.57
2019-06-01T04:17:06.454Z,72.33
2019-06-01T04:19:36.346Z,62.73
2019-06-01T04:22:05.886Z,64.43
2019-06-01T04:24:35.219Z,63.27
2019-06-01T04:27:06.022Z,66.90
2019-06-01T04:29:35.421Z,60.57
2019-06-01T04:32:04.683Z,61.33
2019-06-01T04:34:35.777Z,53.27
2019-06-01T04:37:05.514Z,54.60
2019-06-01T04:39:34.719Z,58.50
2019-06-01T04:42:05.460Z,56.00
2019-06-01T04:44:35.197Z,59.33
2019-06-01T04:47:06.565Z,53.00
2019-06-01T04:49:36.249Z,59.03
2019-06-01T04:52:06.666Z,51.73
2019-06-01T04:54:36.606Z,55.90
2019-06-01T04:57:06.786Z,55.67
2019-06-01T04:59:37.888Z,56.53
2019-06-01T05:02:07.436Z,49.53
2019-06-01T05:04:36.613Z,47.50
2019-06-01T05:07:07.150Z,45.27
2019-06-01T05:09:36.518Z,42.73
2019-06-01T05:12:07.413Z,42.17
2019-06-01T05:14:38.555Z,37.27
2019-06-01T05:17:07.927Z,39.30
2019-06-01T05:19:37.134Z,33.37
2019-06-01T05:22:06.465Z,34.73
2019-06-01T05:24:36.302Z,32.83
2019-06-01T05:27:06.843Z,32.83
2019-06-01T05:29:36.686Z,30.80
2019-06-01T05:32:06.510Z,27.90
2019-06-01T05:34:35.715Z,25.00
2019-06-01T05:37:05.258Z,28.63
2019-06-01T05:39:34.482Z,29.17
2019-06-01T05:42:03.806Z,26.43
2019-06-01T05:44:33.780Z,25.40
2019-06-01T05:47:03.384Z,23.13
2019-06-01T05:49:33.276Z,27.27
2019-06-01T05:52:02.487Z,22.37
2019-06-01T05:54:32.197Z,25.20
2019-06-01T05:57:01.830Z,28.30
2019-06-01T05:59:32.796Z,26.57
2019-06-01T06:02:02.308Z,26.60
2019-06-01T06:04:31.834Z,24.87
2019-06-01T06:07:01.590Z,26.37
2019-06-01T06:09:30.832Z,22.13
2019-06-01T06:12:00.042Z,25.00
2019-06-01T06:14:30.400Z,23.73
2019-06-01T06:16:59.613Z,26.90
2019-06-01T06:19:28.867Z,23.80
2019-06-01T06:21:58.433Z,28.03
2019-06-01T06:24:27.793Z,24.03
2019-06-01T06:26:57.030Z,29.70
2019-06-01T06:29:26.429Z,27.20
2019-06-01T06:31:55.700Z,26.37
2019-06-01T06:34:24.917Z,25.37
2019-06-01T06:36:54.162Z,25.33
2019-06-01T06:39:24.203Z,28.77
2019-06-01T06:41:53.876Z,22.30
2019-06-01T06:44:24.690Z,26.30
2019-06-01T06:46:54.193Z,24.43
2019-06-01T06:49:23.730Z,20.63
2019-06-01T06:51:53.195Z,22.43
2019-06-01T06:54:23.841Z,25.20
2019-06-01T06:56:53.468Z,22.17
2019-06-01T06:59:24.499Z,16.93
2019-06-01T07:01:54.010Z,18.77
2019-06-01T07:04:23.680Z,18.03
2019-06-01T07:06:53.536Z,17.97
2019-06-01T07:09:23.967Z,15.13
2019-06-01T07:11:53.325Z,29.27
2019-06-01T07:14:23.471Z,20.33
2019-06-01T07:16:52.764Z,16.87
2019-06-01T07:19:23.769Z,17.30
2019-06-01T07:21:53.478Z,19.40
2019-06-01T07:24:23.920Z,19.60
2019-06-01T07:26:53.208Z,17.93
2019-06-01T07:29:24.275Z,18.97
2019-06-01T07:31:53.479Z,20.20
2019-06-01T07:34:33.302Z,22.60
2019-06-01T07:36:55.902Z,18.67
2019-06-01T07:39:26.753Z,19.17
2019-06-01T07:41:56.953Z,18.00
2019-06-01T07:44:27.359Z,19.10
2019-06-01T07:46:56.937Z,18.70
2019-06-01T07:49:26.971Z,14.63
2019-06-01T07:51:58.060Z,16.80
2019-06-01T07:54:29.277Z,15.97
2019-06-01T07:56:58.529Z,19.60
2019-06-01T07:59:28.223Z,18.40
2019-06-01T08:01:57.797Z,19.77
2019-06-01T08:04:28.594Z,19.13
2019-06-01T08:06:58.117Z,19.30
2019-06-01T08:09:27.883Z,24.07
2019-06-01T08:11:57.601Z,16.90
2019-06-01T08:14:28.621Z,14.40
2019-06-01T08:17:00.202Z,15.33
2019-06-01T08:19:30.137Z,17.90
2019-06-01T08:21:59.724Z,17.87
2019-06-01T08:24:29.265Z,18.00
2019-06-01T08:26:59.495Z,18.00
2019-06-01T08:29:30.793Z,26.03
2019-06-01T08:32:00.006Z,21.67
2019-06-01T08:34:29.250Z,21.40
2019-06-01T08:36:58.485Z,22.83
2019-06-01T08:39:27.732Z,20.83
2019-06-01T08:41:56.995Z,22.83
2019-06-01T08:44:27.720Z,18.33
2019-06-01T08:46:57.659Z,25.03
2019-06-01T08:49:28.015Z,24.13
2019-06-01T08:51:57.429Z,22.40
2019-06-01T08:54:28.530Z,20.50
2019-06-01T08:56:58.120Z,20.20
2019-06-01T08:59:30.417Z,18.33
2019-06-01T09:02:00.735Z,18.77
2019-06-01T09:04:30.763Z,28.80
2019-06-01T09:07:00.094Z,19.03
2019-06-01T09:09:29.337Z,20.37
2019-06-01T09:11:58.585Z,23.73
2019-06-01T09:14:29.101Z,24.87
2019-06-01T09:16:58.531Z,17.73
2019-06-01T09:19:29.330Z,20.57
2019-06-01T09:21:58.680Z,17.80
2019-06-01T09:24:29.654Z,15.30
2019-06-01T09:26:58.905Z,18.63
2019-06-01T09:29:30.009Z,18.63
2019-06-01T09:31:59.282Z,19.97
2019-06-01T09:34:30.328Z,17.90
2019-06-01T09:36:59.711Z,22.60
2019-06-01T09:39:29.290Z,15.50
2019-06-01T09:41:58.534Z,15.87
2019-06-01T09:44:28.839Z,16.40
2019-06-01T09:46:58.719Z,17.10
2019-06-01T09:49:29.137Z,14.37
2019-06-01T09:51:58.458Z,23.00
2019-06-01T09:54:29.424Z,18.10
2019-06-01T09:56:58.723Z,17.50
2019-06-01T09:59:28.007Z,18.20
2019-06-01T10:01:57.248Z,17.47
2019-06-01T10:04:26.508Z,15.37
2019-06-01T10:06:56.145Z,17.03
2019-06-01T10:09:25.835Z,16.93
2019-06-01T10:11:55.497Z,21.03
2019-06-01T10:14:24.750Z,17.83
2019-06-01T10:16:54.329Z,18.30
2019-06-01T10:19:24.040Z,18.83
2019-06-01T10:21:53.258Z,21.53
2019-06-01T10:24:22.843Z,20.93
2019-06-01T10:26:52.390Z,23.13
2019-06-01T10:29:23.443Z,20.60
2019-06-01T10:31:52.677Z,24.97
2019-06-01T10:34:21.906Z,20.30
2019-06-01T10:36:51.506Z,17.27
2019-06-01T10:39:20.761Z,16.63
2019-06-01T10:41:50.001Z,19.40
2019-06-01T10:44:19.606Z,14.37
2019-06-01T10:46:49.247Z,17.23
2019-06-01T10:49:18.837Z,19.80
2019-06-01T10:51:48.454Z,19.60
2019-06-01T10:54:19.173Z,19.07
2019-06-01T10:56:48.962Z,18.53
2019-06-01T10:59:18.984Z,22.07
2019-06-01T11:01:48.919Z,20.13
2019-06-01T11:04:18.184Z,21.50
2019-06-01T11:06:48.822Z,19.00
2019-06-01T11:09:18.260Z,23.87
2019-06-01T11:11:47.465Z,15.90
2019-06-01T11:14:17.068Z,22.60
2019-06-01T11:16:52.488Z,20.60
2019-06-01T11:19:19.193Z,20.20
2019-06-01T11:21:48.702Z,20.33
2019-06-01T11:24:17.960Z,23.40
2019-06-01T11:26:47.209Z,23.77
2019-06-01T11:29:16.513Z,20.00
2019-06-01T11:31:46.167Z,23.30
2019-06-01T11:34:16.200Z,22.03
2019-06-01T11:37:04.550Z,18.73
2019-06-01T11:39:19.720Z,20.50
2019-06-01T11:41:49.626Z,22.93
2019-06-01T11:44:19.197Z,21.33
2019-06-01T11:46:48.737Z,23.00
2019-06-01T11:49:21.088Z,19.30
2019-06-01T11:51:49.796Z,16.20
2019-06-01T11:54:19.413Z,22.03
2019-06-01T11:56:48.692Z,19.60
2019-06-01T11:59:21.263Z,18.40
2019-06-01T12:01:49.679Z,19.70
2019-06-01T12:04:18.921Z,20.33
2019-06-01T12:06:49.612Z,19.27
2019-06-01T12:09:19.224Z,17.50
2019-06-01T12:11:49.157Z,17.47
2019-06-01T12:14:18.659Z,24.70
2019-06-01T12:16:47.921Z,19.67
2019-06-01T12:19:17.175Z,17.60
2019-06-01T12:21:47.468Z,18.63
2019-06-01T12:24:17.145Z,22.07
2019-06-01T12:26:47.600Z,20.63
2019-06-01T12:29:17.415Z,19.73
2019-06-01T12:31:48.048Z,13.70
2019-06-01T12:34:17.532Z,17.40
2019-06-01T12:36:48.369Z,19.33
2019-06-01T12:39:17.742Z,18.00
2019-06-01T12:41:47.810Z,14.00
2019-06-01T12:44:18.261Z,16.37
2019-06-01T12:46:49.019Z,14.87
2019-06-01T12:49:18.327Z,20.33
2019-06-01T12:51:48.914Z,13.33
2019-06-01T12:54:18.846Z,14.43
2019-06-01T12:56:49.782Z,14.30
2019-06-01T12:59:19.916Z,10.63
2019-06-01T13:01:49.631Z,8.47
2019-06-01T13:04:19.720Z,10.20
2019-06-01T13:06:52.477Z,14.63
2019-06-01T13:09:21.294Z,11.50
2019-06-01T13:11:51.502Z,16.97
2019-06-01T13:14:20.961Z,12.13
2019-06-01T13:17:04.286Z,12.73
2019-06-01T13:19:21.502Z,10.43
2019-06-01T13:21:52.111Z,11.60
2019-06-01T13:24:21.344Z,9.00
2019-06-01T13:26:51.853Z,9.33
2019-06-01T13:29:21.601Z,10.87
2019-06-01T13:31:52.467Z,11.93
2019-06-01T13:34:22.484Z,13.20
2019-06-01T13:36:52.940Z,11.30
2019-06-01T13:39:22.198Z,11.70
2019-06-01T13:41:51.562Z,7.70
2019-06-01T13:44:21.241Z,8.57
2019-06-01T13:46:51.471Z,9.20
2019-06-01T13:49:20.903Z,6.97
2019-06-01T13:51:50.472Z,12.20
2019-06-01T13:54:20.225Z,7.47
2019-06-01T13:56:50.946Z,9.50
2019-06-01T13:59:20.359Z,8.07
2019-06-01T14:01:51.384Z,6.43
2019-06-01T14:04:21.613Z,7.70
2019-06-01T14:06:51.217Z,7.53
2019-06-01T14:09:22.061Z,9.97
2019-06-01T14:11:51.547Z,5.70
2019-06-01T14:14:20.926Z,7.00
2019-06-01T14:16:51.595Z,6.83
2019-06-01T14:19:21.383Z,5.27
2019-06-01T14:21:52.165Z,9.67
2019-06-01T14:24:21.497Z,8.50
2019-06-01T14:26:52.319Z,9.97
2019-06-01T14:29:22.455Z,5.90
2019-06-01T14:31:53.546Z,10.45
2019-06-01T14:34:22.715Z,7.40
2019-06-01T14:36:52.789Z,8.50
2019-06-01T14:39:22.414Z,6.67
2019-06-01T14:41:53.578Z,5.93
2019-06-01T14:44:23.719Z,7.10
2019-06-01T14:47:01.718Z,6.40
2019-06-01T14:49:26.833Z,7.63
2019-06-01T14:51:56.036Z,6.03
2019-06-01T14:54:25.564Z,7.33
2019-06-01T14:56:55.903Z,7.73
2019-06-01T14:59:27.016Z,6.80
2019-06-01T15:01:56.940Z,6.20
2019-06-01T15:04:26.217Z,6.43
2019-06-01T15:06:56.603Z,12.20
2019-06-01T15:09:27.995Z,5.00
2019-06-01T15:11:58.763Z,6.93
2019-06-01T15:14:28.744Z,5.60
2019-06-01T15:16:58.800Z,6.73
2019-06-01T15:19:28.063Z,4.90
2019-06-01T15:21:58.915Z,7.60
2019-06-01T15:24:29.521Z,6.53
2019-06-01T15:27:00.290Z,5.93
2019-06-01T15:29:29.946Z,5.90
2019-06-01T15:32:00.148Z,6.67
2019-06-01T15:34:29.926Z,6.63
2019-06-01T15:36:59.742Z,4.13
2019-06-01T15:39:29.083Z,3.40
2019-06-01T15:41:59.160Z,4.20
2019-06-01T15:44:29.059Z,4.37
2019-06-01T15:46:59.719Z,4.43
2019-06-01T15:49:29.088Z,8.70
2019-06-01T15:51:59.808Z,7.27
2019-06-01T15:54:31.025Z,10.63
2019-06-01T15:57:00.723Z,5.40
2019-06-01T15:59:30.113Z,12.13
2019-06-01T16:01:59.401Z,7.03
2019-06-01T16:04:29.094Z,5.43
2019-06-01T16:06:59.281Z,7.47
2019-06-01T16:09:42.298Z,6.03
2019-06-01T16:12:01.767Z,5.17
2019-06-01T16:14:31.345Z,7.40
2019-06-01T16:17:02.871Z,9.33
2019-06-01T16:19:32.755Z,6.73
2019-06-01T16:22:02.603Z,5.50
2019-06-01T16:24:33.815Z,6.53
2019-06-01T16:27:04.627Z,6.80
2019-06-01T16:29:34.060Z,5.00
2019-06-01T16:32:05.070Z,7.00
2019-06-01T16:34:34.421Z,7.13
2019-06-01T16:37:05.226Z,32.50
2019-06-01T16:39:35.162Z,51.07
2019-06-01T16:42:06.253Z,5.63
2019-06-01T16:44:36.035Z,6.53
2019-06-01T16:47:06.915Z,6.20
2019-06-01T16:49:37.036Z,7.30
2019-06-01T16:52:07.137Z,7.20
2019-06-01T16:54:36.455Z,8.20
2019-06-01T16:57:07.372Z,6.10
2019-06-01T16:59:37.096Z,8.43
2019-06-01T17:02:07.764Z,8.20
2019-06-01T17:04:37.552Z,6.67
2019-06-01T17:07:08.600Z,7.67
2019-06-01T17:09:37.830Z,10.00
2019-06-01T17:12:07.362Z,6.13
2019-06-01T17:14:37.002Z,6.17
2019-06-01T17:17:07.482Z,7.53
2019-06-01T17:19:36.810Z,9.53
2019-06-01T17:22:06.018Z,6.27
2019-06-01T17:24:35.623Z,6.00
2019-06-01T17:27:06.028Z,7.40
2019-06-01T17:29:35.714Z,9.23
2019-06-01T17:32:20.219Z,6.63
2019-06-01T17:34:35.919Z,6.77
2019-06-01T17:37:06.799Z,7.30
2019-06-01T17:39:36.015Z,8.10
2019-06-01T17:42:06.449Z,6.10
2019-06-01T17:44:35.677Z,6.50
2019-06-01T17:47:06.243Z,5.73
2019-06-01T17:49:37.610Z,8.20
2019-06-01T17:52:07.811Z,7.10
2019-06-01T17:54:37.212Z,7.73
2019-06-01T17:57:07.537Z,6.40
2019-06-01T17:59:37.457Z,4.80
2019-06-01T18:02:07.840Z,4.70
2019-06-01T18:04:37.568Z,8.10
2019-06-01T18:07:07.969Z,7.63
2019-06-01T18:09:38.297Z,4.90
2019-06-01T18:12:08.363Z,5.53
2019-06-01T18:14:37.569Z,5.07
2019-06-01T18:17:08.295Z,6.00
2019-06-01T18:19:37.972Z,8.60
2019-06-01T18:22:08.682Z,4.73
2019-06-01T18:24:38.014Z,5.60
2019-06-01T18:27:08.474Z,6.00
2019-06-01T18:29:48.094Z,4.40
2019-06-01T18:32:11.653Z,3.90
2019-06-01T18:34:40.868Z,5.73
2019-06-01T18:37:11.589Z,5.63
2019-06-01T18:39:41.922Z,4.27
2019-06-01T18:42:12.438Z,5.43
2019-06-01T18:44:42.109Z,4.40
2019-06-01T18:47:11.838Z,4.27
2019-06-01T18:49:41.633Z,3.57
2019-06-01T18:52:11.246Z,5.53
2019-06-01T18:54:40.655Z,4.83
2019-06-01T18:57:17.460Z,4.63
2019-06-01T18:59:41.314Z,4.53
2019-06-01T19:02:12.488Z,3.63
2019-06-01T19:04:42.437Z,11.83
2019-06-01T19:07:13.367Z,3.20
2019-06-01T19:09:43.013Z,2.80
2019-06-01T19:12:13.480Z,3.80
2019-06-01T19:14:42.857Z,3.53
2019-06-01T19:17:12.385Z,4.07
2019-06-01T19:19:42.377Z,10.23
2019-06-01T19:22:12.999Z,4.37
2019-06-01T19:24:42.618Z,5.43
2019-06-01T19:27:12.869Z,6.50
2019-06-01T19:29:42.151Z,5.17
2019-06-01T19:32:12.863Z,6.60
2019-06-01T19:34:42.510Z,6.80
2019-06-01T19:37:13.078Z,8.57
2019-06-01T19:39:43.439Z,8.70
2019-06-01T19:42:13.445Z,9.40
2019-06-01T19:44:43.276Z,17.83
2019-06-01T19:47:13.835Z,12.10
2019-06-01T19:49:44.056Z,12.00
2019-06-01T19:52:14.566Z,12.60
2019-06-01T19:54:44.369Z,18.00
2019-06-01T19:57:18.074Z,14.43
2019-06-01T19:59:45.708Z,11.63
2019-06-01T20:02:29.525Z,16.20
2019-06-01T20:04:46.226Z,12.40
2019-06-01T20:07:15.491Z,14.23
2019-06-01T20:09:45.114Z,12.00
2019-06-01T20:12:18.281Z,14.63
2019-06-01T20:14:46.873Z,17.87
2019-06-01T20:17:17.703Z,11.97
2019-06-01T20:19:47.415Z,21.13
2019-06-01T20:22:17.030Z,23.60
2019-06-01T20:24:46.945Z,20.73
2019-06-01T20:27:17.452Z,14.10
2019-06-01T20:29:46.964Z,14.17
2019-06-01T20:32:16.180Z,14.50
2019-06-01T20:34:45.435Z,15.87
2019-06-01T20:37:15.950Z,13.53
2019-06-01T20:39:45.618Z,16.90
2019-06-01T20:42:22.241Z,16.50
2019-06-01T20:44:47.090Z,25.30
2019-06-01T20:47:21.021Z,19.23
2019-06-01T20:49:50.370Z,14.03
2019-06-01T20:52:20.912Z,14.00
2019-06-01T20:54:50.221Z,21.50
2019-06-01T20:57:21.435Z,17.60
2019-06-01T20:59:50.804Z,25.63
2019-06-01T21:02:20.172Z,23.00
2019-06-01T21:04:50.110Z,13.80
2019-06-01T21:07:19.978Z,19.10
2019-06-01T21:09:49.618Z,21.90
2019-06-01T21:12:20.273Z,20.43
2019-06-01T21:14:51.205Z,18.63
2019-06-01T21:17:22.593Z,19.30
2019-06-01T21:19:52.006Z,18.80
2019-06-01T21:22:22.700Z,22.53
2019-06-01T21:24:52.004Z,21.20
2019-06-01T21:27:21.214Z,19.50
2019-06-01T21:29:50.887Z,19.33
2019-06-01T21:32:21.345Z,24.40
2019-06-01T21:34:51.171Z,30.23
2019-06-01T21:37:21.460Z,20.50
2019-06-01T21:39:50.972Z,22.50
2019-06-01T21:42:21.626Z,24.93
2019-06-01T21:44:50.938Z,19.27
2019-06-01T21:47:20.197Z,23.03
2019-06-01T21:49:49.423Z,20.53
2019-06-01T21:52:19.915Z,26.73
2019-06-01T21:54:49.200Z,29.93
2019-06-01T21:57:20.156Z,22.53
2019-06-01T21:59:50.478Z,21.83
2019-06-01T22:02:21.083Z,22.50
2019-06-01T22:04:50.757Z,27.53
2019-06-01T22:07:21.132Z,20.70
2019-06-01T22:09:50.489Z,23.80
2019-06-01T22:12:21.375Z,22.10
2019-06-01T22:14:50.740Z,23.00
2019-06-01T22:17:21.775Z,21.70
2019-06-01T22:19:51.145Z,19.73
2019-06-01T22:22:21.625Z,22.27
2019-06-01T22:24:51.291Z,24.70
2019-06-01T22:27:22.097Z,21.43
2019-06-01T22:29:51.457Z,27.30
2019-06-01T22:32:25.589Z,27.83
2019-06-01T22:34:52.176Z,20.63
2019-06-01T22:37:21.670Z,25.80
2019-06-01T22:39:51.011Z,26.47
2019-06-01T22:42:20.258Z,33.67
2019-06-01T22:44:49.822Z,27.13
2019-06-01T22:47:20.413Z,23.50
2019-06-01T22:49:50.083Z,31.43
2019-06-01T22:52:20.860Z,31.90
2019-06-01T22:54:50.712Z,29.83
2019-06-01T22:57:20.448Z,32.73
2019-06-01T22:59:50.341Z,27.50
2019-06-01T23:02:19.594Z,29.70
2019-06-01T23:04:49.211Z,29.63
2019-06-01T23:07:18.947Z,27.03
2019-06-01T23:09:48.548Z,28.13
2019-06-01T23:12:19.087Z,28.30
2019-06-01T23:14:48.659Z,24.03
2019-06-01T23:17:18.223Z,35.33
2019-06-01T23:19:47.855Z,30.60
2019-06-01T23:22:17.751Z,25.27
2019-06-01T23:24:47.764Z,31.13
2019-06-01T23:27:17.038Z,29.97
2019-06-01T23:29:46.571Z,28.70
2019-06-01T23:32:15.780Z,32.37
2019-06-01T23:34:45.602Z,26.40
2019-06-01T23:37:14.834Z,26.53
2019-06-01T23:39:44.403Z,30.20
2019-06-01T23:42:13.774Z,22.77
2019-06-01T23:44:43.022Z,22.23
2019-06-01T23:47:12.914Z,24.57
2019-06-01T23:49:42.422Z,29.73
2019-06-01T23:52:11.690Z,24.03
2019-06-01T23:54:41.405Z,25.50
2019-06-01T23:57:10.628Z,29.20
2019-06-01T23:59:40.257Z,27.97
